createdAt,value
2022-07-29T00:01:03.709Z,53.71
2022-07-29T00:03:30.287Z,53.55
2022-07-29T00:05:56.856Z,54.40
2022-07-29T00:08:23.391Z,54.40
2022-07-29T00:10:50.824Z,54.87
2022-07-29T00:13:17.332Z,54.87
2022-07-29T00:15:43.799Z,55.81
2022-07-29T00:18:10.249Z,56.14
2022-07-29T00:20:36.839Z,56.40
2022-07-29T00:23:03.274Z,56.23
2022-07-29T00:25:29.794Z,56.34
2022-07-29T00:27:57.223Z,56.35
2022-07-29T00:30:23.811Z,57.46
2022-07-29T00:32:50.271Z,57.54
2022-07-29T00:35:35.169Z,58.58
2022-07-29T00:38:02.148Z,58.89
2022-07-29T00:40:28.741Z,58.55
2022-07-29T00:42:55.199Z,58.55
2022-07-29T00:45:22.930Z,58.30
2022-07-29T00:47:50.147Z,57.87
2022-07-29T00:50:16.941Z,58.11
2022-07-29T00:52:44.172Z,58.45
2022-07-29T00:55:13.335Z,59.16
2022-07-29T00:57:41.709Z,63.43
2022-07-29T01:00:11.041Z,66.92
2022-07-29T01:02:38.006Z,67.59
2022-07-29T01:05:06.236Z,68.40
2022-07-29T01:07:35.874Z,68.49
2022-07-29T01:10:05.446Z,68.92
2022-07-29T01:12:34.678Z,69.02
2022-07-29T01:15:03.495Z,68.21
2022-07-29T01:17:37.943Z,68.60
2022-07-29T01:20:10.409Z,68.44
2022-07-29T01:23:01.285Z,68.06
2022-07-29T01:25:50.730Z,68.35
2022-07-29T01:28:43.802Z,68.35
2022-07-29T01:31:23.738Z,68.57
2022-07-29T01:34:02.679Z,69.30
2022-07-29T01:36:36.577Z,69.17
2022-07-29T01:39:33.314Z,69.14
2022-07-29T01:42:22.815Z,68.74
2022-07-29T01:45:01.319Z,68.49
2022-07-29T01:47:55.061Z,68.42
2022-07-29T01:50:27.178Z,68.43
2022-07-29T01:52:57.322Z,68.30
2022-07-29T01:55:28.620Z,68.75
2022-07-29T01:57:57.260Z,69.77
2022-07-29T02:00:24.729Z,69.95
2022-07-29T02:02:53.707Z,70.54
2022-07-29T02:05:22.654Z,70.88
2022-07-29T02:07:50.515Z,70.39
2022-07-29T02:10:20.479Z,71.40
2022-07-29T02:12:54.556Z,70.08
2022-07-29T02:15:21.915Z,70.55
2022-07-29T02:17:55.732Z,69.24
2022-07-29T02:20:24.682Z,69.70
2022-07-29T02:22:53.060Z,68.58
2022-07-29T02:25:21.958Z,69.26
2022-07-29T02:27:51.550Z,68.72
2022-07-29T02:30:20.616Z,68.92
2022-07-29T02:32:48.409Z,70.13
2022-07-29T02:35:17.123Z,71.27
2022-07-29T02:38:06.484Z,72.78
2022-07-29T02:40:35.861Z,73.63
2022-07-29T02:43:05.129Z,73.48
2022-07-29T02:45:33.377Z,74.22
2022-07-29T02:48:01.813Z,74.02
2022-07-29T02:50:35.529Z,73.20
2022-07-29T02:53:17.216Z,72.87
2022-07-29T02:56:10.121Z,72.70
2022-07-29T02:58:41.973Z,72.54
2022-07-29T03:01:21.416Z,71.82
2022-07-29T03:03:50.625Z,71.01
2022-07-29T03:06:28.199Z,70.75
2022-07-29T03:09:07.826Z,70.86
2022-07-29T03:11:42.337Z,70.81
2022-07-29T03:14:18.045Z,71.15
2022-07-29T03:16:45.168Z,71.66
2022-07-29T03:19:12.069Z,71.93
2022-07-29T03:21:38.517Z,72.27
2022-07-29T03:24:10.061Z,72.26
2022-07-29T03:26:37.168Z,72.69
2022-07-29T03:29:03.656Z,72.17
2022-07-29T03:31:30.194Z,72.01
2022-07-29T03:33:56.881Z,72.10
2022-07-29T03:36:23.322Z,73.13
2022-07-29T03:38:50.423Z,72.30
2022-07-29T03:41:22.316Z,72.18
2022-07-29T03:43:51.134Z,71.94
2022-07-29T03:46:18.884Z,71.53
2022-07-29T03:48:49.650Z,72.02
2022-07-29T03:51:16.377Z,72.08
2022-07-29T03:53:43.630Z,73.20
2022-07-29T03:56:11.242Z,73.25
2022-07-29T03:58:39.140Z,73.44
2022-07-29T04:01:05.889Z,73.11
2022-07-29T04:03:32.460Z,72.69
2022-07-29T04:06:07.472Z,72.36
2022-07-29T04:08:34.577Z,72.30
2022-07-29T04:11:02.389Z,72.49
2022-07-29T04:13:28.976Z,72.15
2022-07-29T04:15:55.482Z,72.11
2022-07-29T04:18:22.289Z,72.00
2022-07-29T04:20:48.773Z,72.82
2022-07-29T04:23:15.331Z,72.15
2022-07-29T04:25:42.913Z,72.47
2022-07-29T04:28:10.570Z,72.56
2022-07-29T04:30:38.127Z,72.32
2022-07-29T04:33:06.928Z,71.84
2022-07-29T04:35:38.901Z,71.71
2022-07-29T04:38:17.275Z,71.90
2022-07-29T04:40:43.986Z,72.40
2022-07-29T04:43:10.585Z,71.72
2022-07-29T04:45:39.113Z,72.05
2022-07-29T04:48:05.791Z,72.32
2022-07-29T04:50:32.794Z,72.37
2022-07-29T04:52:59.281Z,71.62
2022-07-29T04:55:26.308Z,71.54
2022-07-29T04:57:52.770Z,71.69
2022-07-29T05:00:19.250Z,71.33
2022-07-29T05:02:45.817Z,72.10
2022-07-29T05:05:12.413Z,71.01
2022-07-29T05:07:41.775Z,70.85
2022-07-29T05:10:08.916Z,69.91
2022-07-29T05:12:35.525Z,69.10
2022-07-29T05:15:01.957Z,68.62
2022-07-29T05:17:28.478Z,68.71
2022-07-29T05:19:54.926Z,68.82
2022-07-29T05:22:21.877Z,67.84
2022-07-29T05:24:48.627Z,66.68
2022-07-29T05:27:15.236Z,65.78
2022-07-29T05:29:44.298Z,64.06
2022-07-29T05:32:12.806Z,62.91
2022-07-29T05:34:50.877Z,61.98
2022-07-29T05:37:19.988Z,61.73
2022-07-29T05:39:49.090Z,62.37
2022-07-29T05:42:17.524Z,63.11
2022-07-29T05:44:44.017Z,63.46
2022-07-29T05:47:10.545Z,63.26
2022-07-29T05:49:37.037Z,62.61
2022-07-29T05:52:04.258Z,61.37
2022-07-29T05:54:30.787Z,63.08
2022-07-29T05:56:57.506Z,63.75
2022-07-29T05:59:28.339Z,62.95
2022-07-29T06:01:58.070Z,62.03
2022-07-29T06:04:24.769Z,62.26
2022-07-29T06:06:51.333Z,65.10
2022-07-29T06:09:17.788Z,67.39
2022-07-29T06:11:44.230Z,67.37
2022-07-29T06:14:10.721Z,67.11
2022-07-29T06:16:37.305Z,66.37
2022-07-29T06:19:03.852Z,66.82
2022-07-29T06:21:30.373Z,67.16
2022-07-29T06:23:56.930Z,67.62
2022-07-29T06:26:30.315Z,68.06
2022-07-29T06:28:58.130Z,67.50
2022-07-29T06:31:24.719Z,67.53
2022-07-29T06:33:51.528Z,66.53
2022-07-29T06:36:21.714Z,67.38
2022-07-29T06:38:51.360Z,67.63
2022-07-29T06:41:19.008Z,66.72
2022-07-29T06:43:52.586Z,66.57
2022-07-29T06:46:22.450Z,66.33
2022-07-29T06:48:49.747Z,66.36
2022-07-29T06:51:22.977Z,65.44
2022-07-29T06:54:00.140Z,65.45
2022-07-29T06:56:30.738Z,65.60
2022-07-29T06:58:57.182Z,65.67
2022-07-29T07:01:23.842Z,66.20
2022-07-29T07:03:50.404Z,65.45
2022-07-29T07:06:17.310Z,66.01
2022-07-29T07:08:43.804Z,68.02
2022-07-29T07:11:10.301Z,68.31
2022-07-29T07:13:37.010Z,69.38
2022-07-29T07:16:04.608Z,68.05
2022-07-29T07:18:31.580Z,67.20
2022-07-29T07:20:58.375Z,65.57
2022-07-29T07:23:24.964Z,65.84
2022-07-29T07:25:52.119Z,65.72
2022-07-29T07:28:19.580Z,65.80
2022-07-29T07:30:51.796Z,64.81
2022-07-29T07:33:18.327Z,63.61
2022-07-29T07:35:45.224Z,63.41
2022-07-29T07:38:11.794Z,62.66
2022-07-29T07:40:38.466Z,63.73
2022-07-29T07:43:05.039Z,64.16
2022-07-29T07:45:33.601Z,64.44
2022-07-29T07:48:00.161Z,65.10
2022-07-29T07:50:26.958Z,63.82
2022-07-29T07:52:56.073Z,64.80
2022-07-29T07:55:22.589Z,66.82
2022-07-29T07:57:49.089Z,65.00
2022-07-29T08:00:16.994Z,65.81
2022-07-29T08:02:44.066Z,66.58
2022-07-29T08:05:12.581Z,65.56
2022-07-29T08:07:39.537Z,64.97
2022-07-29T08:10:06.532Z,65.62
2022-07-29T08:12:33.088Z,64.57
2022-07-29T08:14:59.812Z,63.24
2022-07-29T08:17:27.521Z,61.96
2022-07-29T08:19:53.991Z,59.95
2022-07-29T08:22:20.697Z,60.59
2022-07-29T08:24:57.113Z,59.17
2022-07-29T08:30:11.244Z,58.81
2022-07-29T08:32:53.340Z,56.70
2022-07-29T08:35:21.931Z,52.64
2022-07-29T08:37:48.660Z,48.11
2022-07-29T08:40:15.460Z,47.44
2022-07-29T08:42:42.150Z,46.58
2022-07-29T08:45:09.414Z,44.94
2022-07-29T08:47:40.380Z,45.85
2022-07-29T08:50:09.107Z,43.87
2022-07-29T08:52:40.946Z,41.14
2022-07-29T08:55:09.829Z,42.21
2022-07-29T08:57:37.469Z,43.20
2022-07-29T09:00:07.983Z,44.05
2022-07-29T09:02:43.120Z,43.78
2022-07-29T09:05:13.604Z,41.89
2022-07-29T09:07:42.955Z,38.83
2022-07-29T09:10:09.888Z,39.26
2022-07-29T09:12:38.229Z,37.74
2022-07-29T09:15:05.323Z,34.75
2022-07-29T09:17:49.599Z,33.25
2022-07-29T09:20:24.018Z,30.10
2022-07-29T09:22:53.663Z,30.41
2022-07-29T09:25:37.517Z,31.27
2022-07-29T09:28:17.394Z,28.17
2022-07-29T09:30:53.385Z,28.12
2022-07-29T09:33:22.328Z,27.01
2022-07-29T09:36:00.565Z,24.10
2022-07-29T09:38:28.436Z,27.56
2022-07-29T09:41:01.739Z,26.98
2022-07-29T09:43:33.075Z,27.85
2022-07-29T09:46:13.509Z,25.48
2022-07-29T09:48:40.370Z,25.78
2022-07-29T09:51:20.626Z,24.03
2022-07-29T09:53:48.773Z,22.32
2022-07-29T09:56:15.386Z,21.95
2022-07-29T09:58:41.875Z,22.93
2022-07-29T10:01:08.512Z,23.62
2022-07-29T10:03:51.781Z,25.20
2022-07-29T10:06:18.335Z,26.01
2022-07-29T10:08:44.936Z,24.57
2022-07-29T10:11:19.288Z,24.87
2022-07-29T10:13:48.528Z,23.74
2022-07-29T10:16:16.006Z,22.90
2022-07-29T10:18:44.723Z,22.00
2022-07-29T10:21:34.446Z,22.93
2022-07-29T10:24:01.154Z,25.12
2022-07-29T10:26:27.922Z,27.35
2022-07-29T10:28:54.413Z,29.49
2022-07-29T10:31:30.571Z,29.75
2022-07-29T10:34:19.242Z,30.49
2022-07-29T10:37:04.880Z,32.58
2022-07-29T10:39:50.820Z,32.18
2022-07-29T10:42:33.553Z,32.13
2022-07-29T10:45:02.334Z,32.09
2022-07-29T10:47:29.006Z,32.74
2022-07-29T10:50:04.459Z,33.25
2022-07-29T10:52:51.113Z,33.13
2022-07-29T10:55:31.628Z,34.36
2022-07-29T10:58:19.472Z,34.89
2022-07-29T11:00:48.077Z,34.52
2022-07-29T11:07:06.169Z,34.25
2022-07-29T11:09:37.685Z,33.66
2022-07-29T11:12:25.057Z,33.35
2022-07-29T11:14:54.243Z,35.67
2022-07-29T11:17:23.427Z,36.11
2022-07-29T11:19:52.335Z,35.94
2022-07-29T11:22:36.465Z,35.82
2022-07-29T11:25:50.988Z,34.69
2022-07-29T11:28:22.747Z,34.73
2022-07-29T11:30:53.941Z,35.24
2022-07-29T11:33:55.888Z,35.67
2022-07-29T11:36:28.002Z,36.13
2022-07-29T11:39:27.137Z,36.02
2022-07-29T11:42:32.164Z,35.43
2022-07-29T11:45:41.477Z,34.44
2022-07-29T11:47:57.795Z,33.63
2022-07-29T11:50:37.901Z,34.24
2022-07-29T11:53:13.292Z,35.13
2022-07-29T11:55:51.816Z,34.94
2022-07-29T11:58:25.025Z,35.55
2022-07-29T12:00:52.620Z,35.65
2022-07-29T12:03:32.946Z,36.28
2022-07-29T12:06:02.532Z,36.32
2022-07-29T12:08:29.028Z,37.40
2022-07-29T12:10:55.669Z,36.94
2022-07-29T12:13:22.925Z,37.19
2022-07-29T12:16:03.983Z,37.47
2022-07-29T12:18:30.520Z,37.47
2022-07-29T12:21:03.410Z,37.27
2022-07-29T12:23:34.353Z,38.13
2022-07-29T12:26:04.535Z,38.13
2022-07-29T12:28:32.043Z,38.80
2022-07-29T12:30:58.596Z,39.17
2022-07-29T12:33:30.535Z,39.23
2022-07-29T12:36:17.127Z,39.61
2022-07-29T12:38:44.415Z,40.13
2022-07-29T12:41:11.405Z,40.35
2022-07-29T12:43:37.975Z,40.13
2022-07-29T12:46:14.892Z,39.90
2022-07-29T12:48:43.474Z,40.01
2022-07-29T12:51:11.097Z,40.36
2022-07-29T12:53:38.908Z,40.47
2022-07-29T12:56:20.732Z,40.52
2022-07-29T12:58:53.072Z,40.97
2022-07-29T13:01:21.697Z,40.46
2022-07-29T13:03:56.941Z,40.60
2022-07-29T13:06:34.723Z,40.73
2022-07-29T13:09:06.606Z,40.89
2022-07-29T13:11:35.398Z,41.39
2022-07-29T13:14:06.535Z,41.65
2022-07-29T13:16:33.923Z,41.65
2022-07-29T13:19:05.687Z,41.17
2022-07-29T13:21:32.132Z,41.44
2022-07-29T13:24:02.083Z,41.41
2022-07-29T13:26:28.864Z,40.11
2022-07-29T13:28:56.069Z,40.35
2022-07-29T13:31:23.070Z,40.05
2022-07-29T13:33:49.678Z,40.53
2022-07-29T13:36:16.124Z,39.71
2022-07-29T13:38:42.966Z,39.56
2022-07-29T13:41:09.501Z,39.70
2022-07-29T13:43:37.063Z,39.09
2022-07-29T13:46:03.529Z,39.02
2022-07-29T13:48:30.037Z,39.23
2022-07-29T13:50:57.645Z,39.22
2022-07-29T13:53:26.926Z,38.75
2022-07-29T13:55:54.150Z,38.62
2022-07-29T13:58:20.636Z,38.41
2022-07-29T14:00:47.644Z,38.05
2022-07-29T14:03:14.165Z,38.75
2022-07-29T14:05:40.658Z,38.61
2022-07-29T14:08:07.122Z,37.78
2022-07-29T14:10:33.643Z,37.69
2022-07-29T14:13:00.107Z,37.43
2022-07-29T14:15:26.639Z,37.18
2022-07-29T14:17:53.105Z,37.28
2022-07-29T14:20:20.192Z,37.59
2022-07-29T14:22:46.696Z,38.21
2022-07-29T14:25:14.485Z,37.22
2022-07-29T14:27:41.786Z,37.31
2022-07-29T14:30:09.319Z,37.97
2022-07-29T14:32:35.882Z,37.53
2022-07-29T14:35:02.380Z,37.87
2022-07-29T14:37:28.946Z,37.94
2022-07-29T14:40:08.906Z,37.54
2022-07-29T14:42:35.452Z,37.49
2022-07-29T14:45:01.917Z,37.98
2022-07-29T14:47:28.416Z,38.13
2022-07-29T14:49:54.860Z,37.87
2022-07-29T14:52:21.446Z,37.71
2022-07-29T14:54:47.960Z,37.84
2022-07-29T14:57:14.501Z,37.83
2022-07-29T14:59:41.017Z,38.35
2022-07-29T15:02:07.533Z,37.51
2022-07-29T15:04:34.426Z,37.45
2022-07-29T15:07:01.180Z,37.00
2022-07-29T15:09:27.890Z,36.93
2022-07-29T15:11:54.940Z,37.20
2022-07-29T15:14:21.423Z,37.09
2022-07-29T15:16:48.361Z,37.32
2022-07-29T15:19:15.060Z,36.90
2022-07-29T15:21:48.148Z,36.67
2022-07-29T15:24:16.761Z,36.78
2022-07-29T15:26:43.882Z,36.53
2022-07-29T15:29:10.538Z,36.23
2022-07-29T15:31:37.178Z,36.60
2022-07-29T15:34:06.249Z,36.14
2022-07-29T15:36:51.522Z,36.05
2022-07-29T15:39:19.248Z,36.22
2022-07-29T15:41:45.698Z,35.76
2022-07-29T15:44:12.159Z,35.11
2022-07-29T15:46:57.382Z,35.19
2022-07-29T15:49:24.539Z,34.78
2022-07-29T15:51:50.993Z,34.23
2022-07-29T15:54:17.749Z,34.70
2022-07-29T15:56:44.217Z,34.37
2022-07-29T15:59:10.677Z,32.99
2022-07-29T16:01:49.356Z,32.46
2022-07-29T16:04:17.446Z,31.80
2022-07-29T16:06:46.121Z,31.72
2022-07-29T16:09:13.295Z,33.14
2022-07-29T16:11:39.998Z,33.35
2022-07-29T16:14:06.794Z,34.69
2022-07-29T16:16:35.789Z,34.13
2022-07-29T16:19:02.322Z,33.08
2022-07-29T16:21:28.752Z,33.45
2022-07-29T16:23:55.306Z,33.86
2022-07-29T16:26:21.855Z,33.71
2022-07-29T16:28:48.304Z,34.07
2022-07-29T16:31:15.497Z,33.90
2022-07-29T16:33:55.312Z,33.12
2022-07-29T16:36:22.861Z,33.71
2022-07-29T16:38:51.201Z,33.97
2022-07-29T16:41:17.715Z,33.91
2022-07-29T16:43:44.406Z,33.47
2022-07-29T16:46:13.114Z,33.34
2022-07-29T16:48:45.384Z,34.73
2022-07-29T16:51:12.109Z,34.80
2022-07-29T16:53:41.297Z,34.43
2022-07-29T16:56:08.555Z,33.99
2022-07-29T16:58:43.055Z,34.40
2022-07-29T17:01:10.170Z,34.74
2022-07-29T17:03:59.945Z,34.25
2022-07-29T17:06:27.366Z,34.82
2022-07-29T17:08:53.790Z,34.80
2022-07-29T17:11:20.314Z,34.51
2022-07-29T17:13:46.881Z,33.43
2022-07-29T17:16:13.391Z,33.29
2022-07-29T17:18:39.894Z,34.48
2022-07-29T17:21:06.316Z,34.17
2022-07-29T17:23:32.796Z,33.83
2022-07-29T17:25:59.309Z,34.47
2022-07-29T17:28:25.740Z,34.26
2022-07-29T17:30:52.179Z,34.53
2022-07-29T17:33:18.755Z,35.69
2022-07-29T17:36:03.544Z,35.05
2022-07-29T17:38:30.068Z,35.10
2022-07-29T17:40:56.640Z,34.82
2022-07-29T17:43:23.094Z,35.71
2022-07-29T17:45:50.881Z,35.87
2022-07-29T17:48:18.831Z,35.51
2022-07-29T17:50:46.036Z,35.60
2022-07-29T17:54:30.491Z,35.93
2022-07-29T17:56:57.337Z,36.45
2022-07-29T17:59:23.999Z,35.24
2022-07-29T18:01:50.560Z,36.37
2022-07-29T18:04:20.873Z,36.53
2022-07-29T18:06:47.353Z,36.21
2022-07-29T18:09:13.915Z,37.03
2022-07-29T18:11:40.600Z,37.35
2022-07-29T18:14:10.962Z,36.56
2022-07-29T18:16:38.387Z,36.26
2022-07-29T18:19:05.090Z,36.53
2022-07-29T18:21:43.536Z,36.99
2022-07-29T18:24:17.989Z,36.92
2022-07-29T18:26:44.561Z,36.93
2022-07-29T18:29:11.012Z,37.52
2022-07-29T18:31:37.629Z,37.92
2022-07-29T18:34:04.166Z,38.56
2022-07-29T18:36:30.809Z,37.42
2022-07-29T18:38:57.249Z,37.73
2022-07-29T18:41:23.712Z,38.46
2022-07-29T18:43:50.139Z,37.71
2022-07-29T18:46:16.627Z,38.12
2022-07-29T18:48:43.110Z,37.60
2022-07-29T18:51:09.712Z,37.45
2022-07-29T18:53:37.051Z,37.62
2022-07-29T18:56:03.881Z,37.13
2022-07-29T18:58:30.399Z,38.05
2022-07-29T19:00:56.838Z,38.60
2022-07-29T19:03:23.277Z,36.76
2022-07-29T19:05:49.930Z,37.02
2022-07-29T19:08:16.359Z,36.93
2022-07-29T19:10:42.896Z,36.92
2022-07-29T19:13:09.632Z,37.02
2022-07-29T19:15:39.995Z,36.98
2022-07-29T19:18:07.121Z,37.36
2022-07-29T19:20:33.777Z,37.02
2022-07-29T19:23:00.221Z,37.99
2022-07-29T19:25:26.678Z,39.81
2022-07-29T19:27:53.109Z,40.91
2022-07-29T19:30:19.777Z,41.29
2022-07-29T19:32:46.441Z,40.32
2022-07-29T19:35:25.187Z,41.41
2022-07-29T19:37:52.632Z,41.96
2022-07-29T19:40:20.020Z,41.95
2022-07-29T19:42:48.190Z,42.21
2022-07-29T19:45:14.683Z,41.44
2022-07-29T19:47:41.148Z,40.74
2022-07-29T19:50:08.439Z,40.37
2022-07-29T19:52:35.170Z,39.16
2022-07-29T19:55:07.071Z,40.76
2022-07-29T19:57:40.966Z,40.41
2022-07-29T20:00:11.139Z,40.72
2022-07-29T20:02:38.734Z,41.92
2022-07-29T20:05:06.036Z,42.31
2022-07-29T20:07:32.519Z,43.84
2022-07-29T20:09:59.312Z,44.06
2022-07-29T20:12:25.823Z,46.06
2022-07-29T20:14:52.893Z,47.10
2022-07-29T20:17:22.039Z,47.81
2022-07-29T20:19:49.795Z,47.99
2022-07-29T20:22:21.067Z,48.61
2022-07-29T20:24:48.335Z,48.87
2022-07-29T20:27:14.822Z,49.61
2022-07-29T20:29:41.274Z,49.72
2022-07-29T20:32:07.825Z,50.21
2022-07-29T20:34:34.378Z,50.81
2022-07-29T20:37:02.698Z,51.42
2022-07-29T20:39:29.452Z,51.59
2022-07-29T20:41:56.142Z,51.73
2022-07-29T20:44:24.204Z,52.65
2022-07-29T20:46:50.681Z,53.13
2022-07-29T20:49:17.363Z,53.75
2022-07-29T20:51:44.256Z,53.96
2022-07-29T20:54:11.146Z,54.18
2022-07-29T20:56:38.220Z,55.05
2022-07-29T20:59:04.737Z,55.28
2022-07-29T21:01:31.215Z,55.06
2022-07-29T21:03:57.741Z,56.23
2022-07-29T21:06:24.214Z,56.25
2022-07-29T21:08:50.658Z,57.45
2022-07-29T21:11:17.676Z,57.62
2022-07-29T21:14:04.193Z,58.59
2022-07-29T21:16:33.326Z,58.98
2022-07-29T21:18:59.864Z,59.59
2022-07-29T21:21:26.885Z,59.53
2022-07-29T21:23:53.336Z,59.47
2022-07-29T21:26:19.911Z,59.77
2022-07-29T21:28:46.387Z,60.56
2022-07-29T21:31:16.968Z,60.85
2022-07-29T21:33:46.319Z,61.44
2022-07-29T21:36:46.805Z,61.64
2022-07-29T21:39:06.714Z,61.98
2022-07-29T21:41:33.609Z,61.70
2022-07-29T21:44:00.067Z,62.41
2022-07-29T21:46:28.104Z,62.53
2022-07-29T21:48:54.624Z,63.81
2022-07-29T21:51:21.164Z,62.98
2022-07-29T21:53:47.622Z,63.26
2022-07-29T21:56:14.967Z,63.80
2022-07-29T21:58:42.008Z,63.76
2022-07-29T22:01:08.483Z,64.04
2022-07-29T22:03:35.027Z,63.74
2022-07-29T22:06:01.521Z,64.07
2022-07-29T22:08:27.936Z,64.57
2022-07-29T22:10:54.381Z,64.13
2022-07-29T22:13:20.879Z,64.32
2022-07-29T22:15:47.450Z,64.14
2022-07-29T22:18:20.458Z,64.79
2022-07-29T22:20:47.823Z,65.38
2022-07-29T22:23:14.289Z,64.48
2022-07-29T22:25:40.748Z,64.18
2022-07-29T22:28:07.218Z,64.15
2022-07-29T22:30:33.719Z,62.50
2022-07-29T22:33:00.322Z,60.85
2022-07-29T22:35:26.862Z,60.41
2022-07-29T22:37:54.153Z,58.43
2022-07-29T22:40:20.722Z,57.47
2022-07-29T22:42:47.256Z,57.26
2022-07-29T22:45:13.788Z,57.82
2022-07-29T22:47:48.133Z,57.92
2022-07-29T22:50:15.614Z,58.98
2022-07-29T22:52:42.193Z,59.34
2022-07-29T22:55:08.833Z,58.80
2022-07-29T22:57:35.451Z,58.72
2022-07-29T23:00:02.415Z,58.21
2022-07-29T23:02:29.432Z,58.54
2022-07-29T23:04:55.990Z,57.68
2022-07-29T23:07:23.278Z,57.76
2022-07-29T23:09:49.717Z,57.89
2022-07-29T23:12:16.151Z,58.01
2022-07-29T23:14:42.621Z,58.73
2022-07-29T23:17:09.135Z,59.32
2022-07-29T23:19:35.638Z,59.60
2022-07-29T23:22:02.080Z,60.66
2022-07-29T23:24:28.549Z,61.26
2022-07-29T23:26:55.049Z,60.63
2022-07-29T23:29:21.593Z,60.95
2022-07-29T23:31:48.512Z,61.22
2022-07-29T23:34:15.404Z,61.58
2022-07-29T23:36:42.410Z,62.52
2022-07-29T23:39:11.336Z,62.90
2022-07-29T23:41:38.004Z,62.86
2022-07-29T23:44:04.998Z,63.93
2022-07-29T23:46:31.487Z,64.35
2022-07-29T23:48:58.021Z,64.42
2022-07-29T23:51:24.895Z,64.18
2022-07-29T23:53:53.663Z,63.59
2022-07-29T23:56:21.115Z,63.51
2022-07-29T23:58:47.592Z,64.52
